Stamford, Vermont
Current Conditions -  °F | °C
As of 1:05 PM on Thursday 23 Oct 2014 (Local Time) from KAQW Reporting Station
Overcast Overcast  
Wind Chill: 40°   Ceiling: 1000
Heat Index: 44°   Visibility: 10mi
Dew Point: 42°   Wind: 7mph
Humidity: 93%   Direction: 280°W
Pressure: 29.79"   Gusts: NA
Location:  42.788°N, 73.0785°W
Report Text: KAQW 231705Z AUTO 28006KT 10SM BKN010 OVC031 07/06 A2979 RMK AO2 CIG 008V014 T00670056
Loading
Personal Weather Stations






























Interactive Weather Map
Tropical Storm Tracking
New forecast layout! Learn more

10-Day Weather Forecast

Advertisements
Track Severe Weather on mobile